Time;durP1;ratioP1;P1;durP2;ratioP2;P2;SDS_P1;SDS_P2;PMS_P1;PMS_P2;Temp;Humidity;BMP_temperature;BMP_pressure;BME280_temperature;BME280_humidity;BME280_pressure;Samples;Min_cycle;Max_cycle;Signal;HPM_P1;HPM_P2
2022/12/01 00:00:40;;;;;;;19.10;11.98;;;;;;;1.29;100.00;93222.09;2140966;27;20031;-75
2022/12/01 00:01:41;;;;;;;19.10;11.32;;;;;;;1.30;100.00;93226.22;2140547;27;20061;-75
2022/12/01 00:02:42;;;;;;;20.55;12.48;;;;;;;1.26;100.00;93225.41;2140213;27;20078;-76
2022/12/01 00:03:43;;;;;;;19.13;12.48;;;;;;;1.19;100.00;93230.59;2131452;27;20087;-76
2022/12/01 00:04:47;;;;;;;20.25;13.18;;;;;;;1.21;100.00;93233.63;2130781;27;20027;-76
2022/12/01 00:06:00;;;;;;;23.30;12.50;;;;;;;1.22;100.00;93221.97;2140685;27;20451;-76
2022/12/01 00:07:01;;;;;;;22.40;12.68;;;;;;;1.38;100.00;93227.09;2140790;27;20086;-76
2022/12/01 00:08:06;;;;;;;18.17;12.10;;;;;;;1.19;100.00;93223.44;2140540;27;20026;-75
2022/12/01 00:10:27;;;;;;;18.73;11.68;;;;;;;1.11;100.00;93226.31;2133820;27;20035;-76
2022/12/01 00:11:29;;;;;;;20.80;12.82;;;;;;;1.02;100.00;93220.53;2132044;27;20027;-77
2022/12/01 00:12:30;;;;;;;19.42;12.07;;;;;;;1.23;100.00;93223.50;2131979;27;20030;-75
2022/12/01 00:13:32;;;;;;;21.27;12.20;;;;;;;1.20;100.00;93217.06;2113918;28;20027;-76
2022/12/01 00:14:32;;;;;;;19.40;12.57;;;;;;;1.20;100.00;93224.97;2114521;27;20027;-76
2022/12/01 00:15:35;;;;;;;19.35;11.73;;;;;;;1.21;100.00;93217.81;2135960;27;20014;-75
2022/12/01 00:16:37;;;;;;;23.75;11.63;;;;;;;1.25;100.00;93213.38;2140358;27;20517;-76
2022/12/01 00:17:38;;;;;;;21.80;12.60;;;;;;;1.20;100.00;93219.69;2131120;27;20081;-75
2022/12/01 00:18:39;;;;;;;19.77;12.77;;;;;;;1.21;100.00;93213.31;2130894;27;20019;-76
2022/12/01 00:19:40;;;;;;;19.15;12.60;;;;;;;1.15;100.00;93224.50;2131623;27;20022;-76
2022/12/01 00:20:41;;;;;;;22.58;12.75;;;;;;;1.07;100.00;93223.63;2131342;27;20026;-75
2022/12/01 00:21:42;;;;;;;25.83;13.93;;;;;;;1.10;100.00;93220.31;2130983;27;20030;-76
2022/12/01 00:22:47;;;;;;;21.77;12.70;;;;;;;1.08;100.00;93219.88;2131223;27;20111;-75
2022/12/01 00:23:53;;;;;;;20.77;12.38;;;;;;;1.19;100.00;93217.44;2131070;27;20105;-75
2022/12/01 00:24:54;;;;;;;19.35;12.50;;;;;;;1.20;100.00;93222.34;2131124;27;20117;-75
2022/12/01 00:26:02;;;;;;;18.63;11.45;;;;;;;1.19;100.00;93220.06;2124686;27;20019;-75
2022/12/01 00:27:03;;;;;;;20.77;13.32;;;;;;;1.17;100.00;93217.75;2123325;27;20077;-76
2022/12/01 00:28:04;;;;;;;20.00;12.52;;;;;;;1.08;100.00;93216.50;2122817;27;20449;-75
2022/12/01 00:29:05;;;;;;;19.90;12.20;;;;;;;1.09;100.00;93221.41;2122462;27;20031;-76
2022/12/01 00:30:10;;;;;;;19.65;12.38;;;;;;;1.14;100.00;93215.06;2123129;27;20155;-76
2022/12/01 00:31:11;;;;;;;21.13;12.52;;;;;;;1.14;100.00;93221.13;2123317;27;20035;-76
2022/12/01 00:32:13;;;;;;;20.65;12.45;;;;;;;1.16;100.00;93223.41;2123380;27;20358;-76
2022/12/01 00:33:14;;;;;;;21.05;12.93;;;;;;;1.08;100.00;93217.25;2123006;27;20023;-76
2022/12/01 00:34:24;;;;;;;23.25;13.30;;;;;;;1.17;100.00;93212.50;2122499;27;20058;-76
2022/12/01 00:35:25;;;;;;;21.65;12.65;;;;;;;1.15;100.00;93214.75;2122804;27;20023;-75
2022/12/01 00:36:26;;;;;;;21.67;11.98;;;;;;;1.06;100.00;93216.84;2130554;27;20039;-76
2022/12/01 00:37:30;;;;;;;22.88;13.68;;;;;;;1.13;100.00;93221.47;2131290;27;20031;-75
2022/12/01 00:38:32;;;;;;;20.55;12.48;;;;;;;0.98;100.00;93218.63;2131105;27;20388;-76
2022/12/01 00:39:32;;;;;;;20.15;12.80;;;;;;;0.87;100.00;93222.94;2131403;27;20110;-75
2022/12/01 00:40:33;;;;;;;21.90;13.85;;;;;;;0.82;100.00;93217.97;2131439;27;20027;-75
2022/12/01 00:41:34;;;;;;;21.40;13.50;;;;;;;0.93;100.00;93215.53;2124107;27;20350;-75
2022/12/01 00:42:36;;;;;;;20.42;13.20;;;;;;;0.95;100.00;93221.19;2129047;27;20098;-75
2022/12/01 00:43:38;;;;;;;25.48;13.20;;;;;;;0.95;100.00;93223.81;2122338;27;20038;-76
2022/12/01 00:44:39;;;;;;;23.60;12.82;;;;;;;0.98;100.00;93218.63;2122494;27;20097;-75
2022/12/01 00:45:41;;;;;;;23.23;14.05;;;;;;;1.31;100.00;93219.84;2131368;27;20441;-76
2022/12/01 00:46:42;;;;;;;23.45;12.88;;;;;;;1.12;100.00;93219.94;2130651;27;20015;-76
2022/12/01 00:47:43;;;;;;;25.10;14.73;;;;;;;1.09;100.00;93218.75;2131433;27;20099;-76
2022/12/01 00:48:44;;;;;;;19.77;12.75;;;;;;;1.14;100.00;93217.69;2124901;27;20031;-75
2022/12/01 00:49:45;;;;;;;20.05;13.27;;;;;;;1.18;100.00;93218.53;2122545;27;20026;-75
2022/12/01 00:50:47;;;;;;;20.73;12.15;;;;;;;1.15;100.00;93213.97;2125715;27;20128;-75
2022/12/01 00:51:48;;;;;;;19.42;12.10;;;;;;;1.11;100.00;93227.09;2122269;27;20056;-76
2022/12/01 00:52:49;;;;;;;19.20;12.25;;;;;;;1.08;100.00;93219.13;2122612;27;20027;-75
2022/12/01 00:53:50;;;;;;;18.77;12.93;;;;;;;1.05;100.00;93217.94;2122744;27;20491;-75
2022/12/01 00:54:51;;;;;;;20.75;13.43;;;;;;;1.08;100.00;93221.75;2125618;27;20022;-77
2022/12/01 00:55:52;;;;;;;20.95;12.70;;;;;;;1.07;100.00;93215.75;2126496;27;20453;-75
2022/12/01 00:56:53;;;;;;;18.02;11.38;;;;;;;1.25;100.00;93213.38;2122894;27;20038;-76
2022/12/01 00:57:55;;;;;;;19.15;12.43;;;;;;;1.19;100.00;93218.19;2122296;27;20338;-76
2022/12/01 00:58:56;;;;;;;19.33;11.50;;;;;;;1.03;100.00;93220.19;2121683;27;20076;-75
2022/12/01 00:59:57;;;;;;;16.55;11.00;;;;;;;0.94;100.00;93220.44;2122578;27;20048;-75
2022/12/01 01:00:59;;;;;;;17.65;11.65;;;;;;;1.11;100.00;93215.78;2123004;27;20126;-76
2022/12/01 01:02:02;;;;;;;17.75;11.75;;;;;;;1.14;100.00;93218.50;2124404;27;20023;-75
2022/12/01 01:03:05;;;;;;;18.48;12.55;;;;;;;1.07;100.00;93217.63;2122292;27;20378;-75
2022/12/01 01:04:06;;;;;;;18.27;12.02;;;;;;;1.06;100.00;93218.72;2121750;27;20030;-75
2022/12/01 01:05:07;;;;;;;21.52;12.73;;;;;;;0.97;100.00;93213.72;2122487;27;20046;-75
2022/12/01 01:06:10;;;;;;;19.88;13.00;;;;;;;1.02;100.00;93215.28;2123946;27;20019;-75
2022/12/01 01:07:11;;;;;;;18.55;11.75;;;;;;;1.09;100.00;93216.13;2130559;27;20585;-76
2022/12/01 01:08:13;;;;;;;19.25;10.98;;;;;;;1.14;100.00;93217.69;2131619;27;20062;-75
2022/12/01 01:09:15;;;;;;;18.70;11.75;;;;;;;0.94;100.00;93217.78;2131445;27;20057;-76
2022/12/01 01:10:16;;;;;;;18.27;11.60;;;;;;;0.88;100.00;93216.56;2130899;27;20483;-74
2022/12/01 01:11:17;;;;;;;20.92;11.88;;;;;;;1.01;100.00;93219.78;2130511;27;20109;-76
2022/12/01 01:12:18;;;;;;;18.60;11.95;;;;;;;0.97;100.00;93221.59;2129394;27;20082;-74
2022/12/01 01:13:19;;;;;;;19.30;11.98;;;;;;;1.03;100.00;93219.44;2122898;27;20023;-75
2022/12/01 01:14:21;;;;;;;19.85;12.48;;;;;;;0.91;100.00;93220.38;2123047;27;20023;-76
2022/12/01 01:15:22;;;;;;;17.23;10.93;;;;;;;0.97;100.00;93214.47;2123677;27;20019;-74
2022/12/01 01:16:23;;;;;;;19.55;12.45;;;;;;;0.95;100.00;93218.56;2122862;27;20356;-75
2022/12/01 01:17:24;;;;;;;17.50;11.70;;;;;;;0.99;100.00;93222.75;2132104;27;20675;-75
2022/12/01 01:18:25;;;;;;;20.73;13.18;;;;;;;1.06;100.00;93218.72;2131871;27;20039;-76
2022/12/01 01:19:26;;;;;;;21.88;12.05;;;;;;;1.00;100.00;93224.28;2122465;27;20034;-75
2022/12/01 01:20:27;;;;;;;21.27;12.43;;;;;;;1.00;100.00;93216.38;2113378;28;20043;-75
2022/12/01 01:21:30;;;;;;;20.90;12.43;;;;;;;0.97;100.00;93222.38;2122231;27;20027;-75
2022/12/01 01:22:31;;;;;;;19.38;12.95;;;;;;;0.85;100.00;93217.28;2131553;27;20019;-75
2022/12/01 01:23:32;;;;;;;20.30;12.48;;;;;;;0.80;100.00;93220.19;2131556;27;20097;-76
2022/12/01 01:24:33;;;;;;;20.73;12.23;;;;;;;0.76;100.00;93219.38;2131837;27;20087;-76
2022/12/01 01:25:34;;;;;;;18.38;11.85;;;;;;;1.06;100.00;93213.47;2131576;27;20022;-74
2022/12/01 01:26:36;;;;;;;20.25;12.93;;;;;;;0.99;100.00;93212.22;2113593;28;20027;-75
2022/12/01 01:27:37;;;;;;;20.48;13.13;;;;;;;0.92;100.00;93222.66;2113170;28;20834;-75
2022/12/01 01:28:40;;;;;;;19.10;13.00;;;;;;;0.80;100.00;93216.81;2111564;28;20027;-74
2022/12/01 01:29:41;;;;;;;20.35;13.32;;;;;;;0.80;100.00;93224.72;2122434;27;20127;-75
2022/12/01 01:30:43;;;;;;;21.33;14.02;;;;;;;0.80;100.00;93225.47;2122175;27;20038;-75
2022/12/01 01:31:44;;;;;;;21.30;12.77;;;;;;;0.79;100.00;93216.06;2113775;28;20023;-75
2022/12/01 01:32:45;;;;;;;20.90;13.60;;;;;;;0.77;100.00;93214.88;2122321;27;20027;-76
2022/12/01 01:33:46;;;;;;;22.52;14.60;;;;;;;0.87;100.00;93216.91;2130859;27;20023;-76
2022/12/01 01:34:47;;;;;;;20.45;13.95;;;;;;;1.02;100.00;93210.03;2130961;27;20039;-75
2022/12/01 01:35:49;;;;;;;22.10;13.35;;;;;;;0.98;100.00;93220.50;2130972;27;20105;-75
2022/12/01 01:36:50;;;;;;;21.42;13.40;;;;;;;0.94;100.00;93217.78;2130666;27;20039;-76
2022/12/01 01:37:51;;;;;;;22.90;13.23;;;;;;;1.02;100.00;93213.41;2131274;27;20122;-75
2022/12/01 01:38:54;;;;;;;19.05;12.80;;;;;;;0.96;100.00;93218.19;2121717;27;20023;-76
2022/12/01 01:39:54;;;;;;;22.05;13.38;;;;;;;0.97;100.00;93218.97;2113582;28;20059;-75
2022/12/01 01:40:56;;;;;;;19.73;13.48;;;;;;;0.84;100.00;93217.63;2121666;27;20534;-75
2022/12/01 01:41:57;;;;;;;20.38;13.00;;;;;;;0.90;100.00;93214.34;2130776;27;20103;-76
2022/12/01 01:42:58;;;;;;;21.25;13.93;;;;;;;0.91;100.00;93217.72;2131517;27;20079;-74
2022/12/01 01:44:02;;;;;;;18.45;12.65;;;;;;;1.01;100.00;93214.53;2121682;27;20043;-75
2022/12/01 01:45:04;;;;;;;21.10;13.73;;;;;;;0.91;100.00;93217.72;2122889;27;20030;-75
2022/12/01 01:46:05;;;;;;;19.75;13.20;;;;;;;1.04;100.00;93219.06;2131561;27;20034;-74
2022/12/01 01:47:06;;;;;;;23.38;13.20;;;;;;;0.93;100.00;93216.28;2130860;27;20035;-75
2022/12/01 01:48:09;;;;;;;23.63;13.85;;;;;;;0.94;100.00;93212.53;2130975;27;20026;-75
2022/12/01 01:49:13;;;;;;;20.23;13.30;;;;;;;0.82;100.00;93214.59;2130799;27;20550;-75
2022/12/01 01:50:18;;;;;;;20.50;13.65;;;;;;;1.10;100.00;93220.31;2131254;27;20109;-75
2022/12/01 01:51:26;;;;;;;20.08;13.40;;;;;;;0.94;100.00;93209.91;2131206;27;20030;-75
2022/12/01 01:52:27;;;;;;;22.23;12.90;;;;;;;0.89;100.00;93218.09;2130452;27;20417;-75
2022/12/01 01:53:28;;;;;;;22.38;13.32;;;;;;;0.93;100.00;93221.53;2130937;27;20441;-76
2022/12/01 01:54:36;;;;;;;21.13;14.02;;;;;;;0.98;100.00;93223.88;2127340;27;20121;-76
2022/12/01 01:55:37;;;;;;;23.17;14.13;;;;;;;0.95;100.00;93215.91;2122764;27;20031;-76
2022/12/01 01:56:38;;;;;;;20.67;13.65;;;;;;;1.13;100.00;93218.81;2130523;27;20402;-75
2022/12/01 01:57:41;;;;;;;22.70;12.88;;;;;;;1.10;100.00;93216.88;2139643;27;20083;-76
2022/12/01 01:58:43;;;;;;;21.08;12.50;;;;;;;1.05;100.00;93215.31;2129764;27;20095;-75
2022/12/01 01:59:52;;;;;;;18.83;12.98;;;;;;;0.96;100.00;93218.19;2122653;27;20023;-75
2022/12/01 02:00:53;;;;;;;22.10;13.20;;;;;;;1.22;100.00;93225.34;2121763;27;20019;-75
2022/12/01 02:02:12;;;;;;;19.42;13.23;;;;;;;1.17;100.00;93217.75;2121974;27;20074;-75
2022/12/01 02:03:15;;;;;;;18.65;11.90;;;;;;;1.04;100.00;93220.94;2121849;27;20072;-76
2022/12/01 02:04:18;;;;;;;23.58;12.98;;;;;;;0.94;100.00;93222.31;2122358;27;20027;-76
2022/12/01 02:05:26;;;;;;;20.20;12.95;;;;;;;0.90;100.00;93227.50;2139670;27;20075;-75
2022/12/01 02:06:27;;;;;;;20.27;13.60;;;;;;;0.88;100.00;93223.69;2136448;27;20038;-75
2022/12/01 02:07:28;;;;;;;21.17;13.02;;;;;;;0.97;100.00;93221.59;2130865;27;20061;-76
2022/12/01 02:08:30;;;;;;;20.70;14.02;;;;;;;0.81;100.00;93215.69;2121906;27;20031;-75
2022/12/01 02:09:31;;;;;;;21.27;13.70;;;;;;;0.81;100.00;93220.97;2104590;28;20032;-76
2022/12/01 02:11:18;;;;;;;22.02;13.35;;;;;;;0.82;100.00;93217.22;2104332;28;20449;-76
2022/12/01 02:12:40;;;;;;;22.63;13.07;;;;;;;0.64;100.00;93217.66;2119908;27;20015;-76
2022/12/01 02:13:47;;;;;;;22.85;13.00;;;;;;;0.73;100.00;93212.19;2124626;27;20061;-75
2022/12/01 02:15:22;;;;;;;19.42;11.88;;;;;;;0.72;100.00;93211.44;2130856;27;20031;-76
2022/12/01 02:16:37;;;;;;;22.73;13.25;;;;;;;0.70;100.00;93215.50;2131186;27;20111;-76
2022/12/01 02:17:53;;;;;;;23.15;13.10;;;;;;;0.73;100.00;93214.81;2121362;27;20048;-75
2022/12/01 02:19:03;;;;;;;22.95;13.48;;;;;;;0.74;100.00;93213.69;2122203;27;20521;-75
2022/12/01 02:20:30;;;;;;;22.42;14.15;;;;;;;0.80;100.00;93214.19;2122621;27;20027;-75
2022/12/01 02:21:52;;;;;;;22.27;12.43;;;;;;;0.82;100.00;93214.59;2096345;28;20505;-75
2022/12/01 02:22:56;;;;;;;23.10;13.45;;;;;;;0.83;100.00;93211.59;2122108;27;20023;-75
2022/12/01 02:24:27;;;;;;;22.95;13.52;;;;;;;0.88;100.00;93213.94;2122344;27;20027;-75
2022/12/01 02:25:49;;;;;;;22.58;13.02;;;;;;;0.80;100.00;93212.31;2126070;27;20034;-75
2022/12/01 02:27:35;;;;;;;22.10;13.20;;;;;;;0.90;100.00;93213.59;2130911;27;20075;-75
2022/12/01 02:28:51;;;;;;;19.17;12.43;;;;;;;0.84;100.00;93215.00;2109770;27;20038;-75
2022/12/01 02:30:05;;;;;;;21.40;12.52;;;;;;;0.77;100.00;93210.38;2130641;27;20031;-76
2022/12/01 02:31:27;;;;;;;18.13;11.73;;;;;;;0.85;100.00;93206.00;2122237;27;20039;-76
2022/12/01 02:32:37;;;;;;;18.23;11.38;;;;;;;0.85;100.00;93209.38;2122430;27;20103;-75
2022/12/01 02:33:50;;;;;;;22.15;12.75;;;;;;;0.95;100.00;93202.75;2122200;28;20027;-75
2022/12/01 02:34:59;;;;;;;21.90;12.32;;;;;;;0.81;100.00;93211.19;2126158;27;20142;-75
2022/12/01 02:36:14;;;;;;;22.50;12.93;;;;;;;0.69;100.00;93211.34;2124035;27;20031;-76
2022/12/01 02:37:39;;;;;;;22.48;13.20;;;;;;;0.77;100.00;93207.75;2122086;27;20121;-75
2022/12/01 02:38:51;;;;;;;18.42;12.45;;;;;;;0.67;100.00;93209.09;2122098;27;20467;-75
2022/12/01 02:40:16;;;;;;;20.23;12.95;;;;;;;0.65;100.00;93210.53;2121635;28;20046;-76
2022/12/01 02:41:26;;;;;;;19.23;11.88;;;;;;;0.83;100.00;93208.97;2123976;27;20018;-76
2022/12/01 02:42:48;;;;;;;21.50;12.98;;;;;;;0.72;100.00;93200.91;2121894;27;20035;-76
2022/12/01 02:44:02;;;;;;;20.63;12.70;;;;;;;0.70;100.00;93207.63;2124417;27;20113;-76
2022/12/01 02:45:09;;;;;;;24.77;14.50;;;;;;;0.64;100.00;93199.25;2130601;27;20139;-74
2022/12/01 02:46:22;;;;;;;20.13;12.80;;;;;;;0.66;100.00;93210.22;2129636;27;20684;-76
2022/12/01 02:47:24;;;;;;;24.23;13.07;;;;;;;0.83;100.00;93206.31;2130850;27;20031;-74
2022/12/01 02:48:28;;;;;;;20.90;12.85;;;;;;;0.75;100.00;93202.84;2130986;27;20034;-76
2022/12/01 02:49:34;;;;;;;23.02;13.43;;;;;;;0.68;100.00;93201.97;2130166;27;20022;-75
2022/12/01 02:50:38;;;;;;;21.08;13.55;;;;;;;0.55;100.00;93209.25;2129973;27;20031;-75
2022/12/01 02:51:43;;;;;;;24.73;13.02;;;;;;;0.57;100.00;93209.69;2121431;27;20031;-75
2022/12/01 02:52:44;;;;;;;26.42;14.68;;;;;;;0.60;100.00;93198.44;2122239;27;20030;-75
2022/12/01 02:53:45;;;;;;;23.55;14.10;;;;;;;0.58;100.00;93211.19;2121817;28;20033;-75
2022/12/01 02:54:50;;;;;;;22.40;13.70;;;;;;;0.56;100.00;93210.75;2121649;28;20417;-76
2022/12/01 02:55:52;;;;;;;23.80;14.07;;;;;;;0.58;100.00;93210.44;2122060;27;20031;-75
2022/12/01 02:56:53;;;;;;;24.25;15.20;;;;;;;0.62;100.00;93200.75;2127917;27;20018;-75
2022/12/01 02:57:54;;;;;;;22.50;13.65;;;;;;;0.72;100.00;93202.78;2131488;27;20023;-76
2022/12/01 02:58:55;;;;;;;25.27;15.13;;;;;;;0.69;100.00;93208.72;2130254;27;20079;-76
2022/12/01 02:59:58;;;;;;;21.92;13.57;;;;;;;0.53;100.00;93208.06;2130135;27;20030;-76
2022/12/01 03:01:27;;;;;;;21.08;13.48;;;;;;;0.44;100.00;93210.91;2122399;27;20648;-76
2022/12/01 03:02:43;;;;;;;24.27;13.93;;;;;;;0.40;100.00;93204.88;2121608;28;20035;-75
2022/12/01 03:03:56;;;;;;;23.98;13.95;;;;;;;0.43;100.00;93212.78;2122416;27;20106;-76
2022/12/01 03:05:17;;;;;;;22.13;12.73;;;;;;;0.53;100.00;93210.69;2122023;27;20039;-77
2022/12/01 03:06:35;;;;;;;26.23;13.85;;;;;;;0.69;100.00;93211.34;2122517;27;20099;-76
2022/12/01 03:08:12;;;;;;;19.38;12.10;;;;;;;0.66;100.00;93206.78;2122143;27;20029;-76
2022/12/01 03:09:16;;;;;;;20.98;11.93;;;;;;;0.70;100.00;93210.25;2120914;28;20481;-76
2022/12/01 03:10:24;;;;;;;22.33;13.00;;;;;;;0.53;100.00;93215.97;2121138;28;20031;-76
2022/12/01 03:11:34;;;;;;;20.00;12.50;;;;;;;0.50;100.00;93215.56;2123200;27;20023;-76
2022/12/01 03:12:38;;;;;;;;;;;;;;;0.63;100.00;93210.91;2123735;27;20050;-77
2022/12/01 03:14:05;;;;;;;20.50;11.88;;;;;;;0.70;100.00;93218.13;2123344;27;19913;-76
2022/12/01 03:15:53;;;;;;;19.60;12.25;;;;;;;0.72;100.00;93213.28;2123485;27;20497;-76
2022/12/01 03:16:58;;;;;;;18.63;11.07;;;;;;;0.62;100.00;93214.66;2119610;27;20035;-76
2022/12/01 03:18:28;;;;;;;19.83;12.32;;;;;;;0.54;100.00;93218.25;2123594;27;20043;-76
2022/12/01 03:19:55;;;;;;;22.33;13.00;;;;;;;0.57;100.00;93217.56;2123568;27;20373;-76
2022/12/01 03:21:23;;;;;;;21.17;12.52;;;;;;;0.66;100.00;93214.69;2123642;27;20041;-77
2022/12/01 03:22:36;;;;;;;21.70;12.80;;;;;;;0.62;100.00;93206.75;2120821;27;20027;-76
2022/12/01 03:23:42;;;;;;;22.23;13.13;;;;;;;0.53;100.00;93208.06;2115110;27;20034;-77
2022/12/01 03:24:46;;;;;;;18.88;12.27;;;;;;;0.60;100.00;93210.84;2115237;28;20039;-76
2022/12/01 03:25:51;;;;;;;19.58;12.60;;;;;;;0.55;100.00;93222.41;2122977;27;20400;-77
2022/12/01 03:26:57;;;;;;;17.35;11.40;;;;;;;0.57;100.00;93198.38;2122529;27;20108;-76
2022/12/01 03:28:00;;;;;;;16.17;11.40;;;;;;;0.55;100.00;93211.13;2119390;27;20100;-76
2022/12/01 03:29:12;;;;;;;20.42;12.32;;;;;;;0.47;100.00;93204.97;2123497;27;20126;-77
2022/12/01 03:30:15;;;;;;;20.60;12.15;;;;;;;0.43;100.00;93212.03;2123652;27;20385;-77
2022/12/01 03:31:21;;;;;;;20.23;12.30;;;;;;;0.63;100.00;93197.00;2122674;27;20080;-76
2022/12/01 03:32:31;;;;;;;21.33;12.43;;;;;;;0.53;100.00;93203.59;2123110;27;20023;-77
2022/12/01 03:33:37;;;;;;;19.60;13.57;;;;;;;0.54;100.00;93204.34;2115286;27;20024;-76
2022/12/01 03:34:50;;;;;;;20.23;12.98;;;;;;;0.48;100.00;93199.38;2117803;27;20169;-77
2022/12/01 03:35:58;;;;;;;16.92;11.32;;;;;;;0.53;100.00;93202.81;2122351;27;20019;-76
2022/12/01 03:37:11;;;;;;;20.58;13.15;;;;;;;0.40;100.00;93204.88;2122866;27;20023;-76
2022/12/01 03:38:25;;;;;;;22.13;12.70;;;;;;;0.45;100.00;93207.97;2122882;27;20031;-76
2022/12/01 03:39:32;;;;;;;20.30;13.30;;;;;;;0.50;100.00;93201.66;2123345;27;20167;-75
2022/12/01 03:40:36;;;;;;;22.98;12.88;;;;;;;0.53;100.00;93202.81;2122346;27;20106;-76
2022/12/01 03:41:44;;;;;;;21.50;12.75;;;;;;;0.55;100.00;93208.50;2114274;28;20031;-75
2022/12/01 03:43:14;;;;;;;24.95;13.85;;;;;;;0.58;100.00;93207.81;2098142;28;20028;-75
2022/12/01 03:44:21;;;;;;;20.95;12.10;;;;;;;0.63;100.00;93197.75;2109611;28;20063;-75
2022/12/01 03:45:29;;;;;;;20.92;12.43;;;;;;;0.84;100.00;93202.59;2115166;28;20027;-75
2022/12/01 03:46:50;;;;;;;21.73;13.80;;;;;;;0.71;100.00;93198.63;2114842;28;20031;-75
2022/12/01 03:47:51;;;;;;;20.65;12.43;;;;;;;0.57;100.00;93212.31;2115161;28;20106;-75
2022/12/01 03:48:53;;;;;;;21.83;13.95;;;;;;;0.36;100.00;93204.03;2114282;27;20457;-75
2022/12/01 03:49:55;;;;;;;21.85;14.13;;;;;;;0.45;100.00;93201.94;2114943;28;20023;-75
2022/12/01 03:51:38;;;;;;;25.75;14.07;;;;;;;0.41;100.00;93207.13;2114986;28;20782;-75
2022/12/01 03:53:00;;;;;;;25.17;13.73;;;;;;;0.49;100.00;93197.50;2080549;28;20565;-75
2022/12/01 03:54:04;;;;;;;20.27;12.20;;;;;;;0.58;100.00;93199.91;2119925;27;20027;-75
2022/12/01 03:55:12;;;;;;;20.38;13.23;;;;;;;0.42;100.00;93200.75;2123184;27;20027;-75
2022/12/01 03:56:19;;;;;;;20.33;13.05;;;;;;;0.53;100.00;93198.34;2122550;27;20051;-75
2022/12/01 03:57:27;;;;;;;23.33;13.50;;;;;;;0.54;100.00;93206.97;2123732;27;20027;-75
2022/12/01 03:58:33;;;;;;;24.73;13.55;;;;;;;0.37;100.00;93201.06;2114307;28;20035;-75
2022/12/01 03:59:38;;;;;;;23.33;13.75;;;;;;;0.30;100.00;93200.91;2114966;27;20023;-75
2022/12/01 04:00:40;;;;;;;22.30;13.27;;;;;;;0.32;100.00;93197.97;2123362;27;20076;-75
2022/12/01 04:01:41;;;;;;;24.60;13.90;;;;;;;0.28;100.00;93205.78;2122527;27;20101;-75
2022/12/01 04:02:43;;;;;;;21.17;13.80;;;;;;;0.25;100.00;93204.59;2122591;27;20029;-75
2022/12/01 04:03:45;;;;;;;24.75;14.70;;;;;;;0.24;100.00;93200.44;2123358;27;20023;-75
2022/12/01 04:04:46;;;;;;;25.38;14.38;;;;;;;0.15;100.00;93202.53;2115818;28;20039;-75
2022/12/01 04:05:48;;;;;;;24.92;14.77;;;;;;;0.21;100.00;93203.75;2115245;28;20063;-76
2022/12/01 04:06:49;;;;;;;27.05;15.75;;;;;;;0.25;100.00;93204.59;2114933;28;20080;-76
2022/12/01 04:07:51;;;;;;;23.88;14.73;;;;;;;0.33;100.00;93199.47;2105539;28;20422;-75
2022/12/01 04:08:52;;;;;;;23.80;14.45;;;;;;;0.34;100.00;93209.63;2106045;28;20051;-75
2022/12/01 04:09:53;;;;;;;26.67;15.95;;;;;;;0.28;100.00;93211.03;2114939;27;20315;-76
2022/12/01 04:10:54;;;;;;;25.02;14.80;;;;;;;0.28;100.00;93208.41;2105882;28;20466;-75
2022/12/01 04:13:25;;;;;;;25.58;14.57;;;;;;;0.37;100.00;93201.06;2113523;28;20032;-75
2022/12/01 04:14:33;;;;;;;24.42;14.60;;;;;;;0.45;100.00;93213.22;2113530;28;20408;-75
2022/12/01 04:15:40;;;;;;;22.85;14.25;;;;;;;0.32;100.00;93205.84;2113890;28;20027;-75
2022/12/01 04:16:41;;;;;;;24.60;14.13;;;;;;;0.41;100.00;93212.41;2114274;28;20722;-75
2022/12/01 04:17:43;;;;;;;24.27;14.43;;;;;;;0.47;100.00;93204.97;2127518;27;20043;-75
2022/12/01 04:18:44;;;;;;;24.25;14.23;;;;;;;0.20;100.00;93210.13;2122276;27;20023;-76
2022/12/01 04:19:45;;;;;;;19.92;13.00;;;;;;;0.12;100.00;93205.84;2124988;27;20494;-75
2022/12/01 04:20:47;;;;;;;24.77;14.02;;;;;;;0.28;100.00;93208.41;2140637;27;20497;-76
2022/12/01 04:21:48;;;;;;;26.15;15.23;;;;;;;0.17;100.00;93212.69;2140477;27;20026;-75
2022/12/01 04:22:49;;;;;;;23.77;15.00;;;;;;;0.17;100.00;93205.56;2139605;27;20024;-75
2022/12/01 04:23:59;;;;;;;22.90;14.27;;;;;;;0.10;100.00;93207.31;2131246;27;20011;-75
2022/12/01 04:25:00;;;;;;;21.15;14.05;;;;;;;0.11;100.00;93214.84;2131912;27;20030;-75
2022/12/01 04:26:03;;;;;;;22.63;14.25;;;;;;;0.08;100.00;93215.53;2140019;27;20030;-75
2022/12/01 04:27:04;;;;;;;23.88;14.50;;;;;;;0.14;100.00;93210.78;2130941;27;20441;-75
2022/12/01 04:28:05;;;;;;;24.35;15.25;;;;;;;0.27;100.00;93214.03;2131495;27;20118;-75
2022/12/01 04:29:10;;;;;;;25.08;15.27;;;;;;;0.09;100.00;93211.81;2131134;27;20034;-75
2022/12/01 04:30:12;;;;;;;27.40;16.58;;;;;;;0.21;100.00;93216.16;2114181;27;20031;-76
2022/12/01 04:31:12;;;;;;;27.02;16.25;;;;;;;0.20;100.00;93212.75;2122443;27;20071;-76
2022/12/01 04:32:13;;;;;;;24.73;15.55;;;;;;;0.31;100.00;93210.34;2140164;27;20352;-76
2022/12/01 04:33:14;;;;;;;27.52;16.08;;;;;;;0.19;100.00;93216.50;2140281;27;20677;-75
2022/12/01 04:34:15;;;;;;;29.45;17.45;;;;;;;0.07;100.00;93208.75;2140483;27;20033;-75
2022/12/01 04:35:16;;;;;;;28.20;16.85;;;;;;;0.03;100.00;93210.56;2139610;27;20045;-75
2022/12/01 04:36:17;;;;;;;28.42;16.92;;;;;;;-0.07;100.00;93211.13;2131148;27;20029;-75
2022/12/01 04:37:19;;;;;;;29.98;17.80;;;;;;;-0.22;100.00;93212.72;2130847;27;20027;-74
2022/12/01 04:38:20;;;;;;;29.95;17.90;;;;;;;-0.19;100.00;93221.75;2140057;27;20026;-75
2022/12/01 04:39:21;;;;;;;30.10;17.35;;;;;;;-0.15;100.00;93218.09;2140305;27;20020;-76
2022/12/01 04:40:24;;;;;;;28.33;17.15;;;;;;;-0.04;100.00;93221.72;2139214;27;20037;-75
2022/12/01 04:41:25;;;;;;;29.88;17.63;;;;;;;-0.01;100.00;93215.75;2132463;27;20037;-75
2022/12/01 04:42:26;;;;;;;30.10;17.77;;;;;;;0.03;100.00;93218.44;2132252;27;20026;-76
2022/12/01 04:43:27;;;;;;;35.53;18.45;;;;;;;0.04;100.00;93219.97;2131459;27;20037;-75
2022/12/01 04:44:27;;;;;;;33.03;19.08;;;;;;;0.05;100.00;93218.88;2113868;28;20098;-75
2022/12/01 04:45:29;;;;;;;30.15;17.98;;;;;;;0.14;100.00;93223.91;2105684;28;20028;-76
2022/12/01 04:46:29;;;;;;;29.58;18.67;;;;;;;0.03;100.00;93218.44;2122627;27;20027;-75
2022/12/01 04:47:30;;;;;;;32.17;18.67;;;;;;;0.11;100.00;93225.34;2131660;27;20460;-74
2022/12/01 04:48:34;;;;;;;37.60;18.45;;;;;;;0.07;100.00;93219.28;2122302;27;20035;-76
2022/12/01 04:49:36;;;;;;;32.40;18.67;;;;;;;-0.05;100.00;93214.91;2122613;27;20044;-76
2022/12/01 04:50:37;;;;;;;30.73;18.70;;;;;;;-0.03;100.00;93217.22;2131196;27;20130;-75
2022/12/01 04:51:38;;;;;;;34.10;18.55;;;;;;;-0.04;100.00;93215.69;2140175;27;20026;-76
2022/12/01 04:52:39;;;;;;;30.23;18.60;;;;;;;0.01;100.00;93220.66;2131004;27;20015;-75
2022/12/01 04:53:39;;;;;;;32.40;19.08;;;;;;;0.11;100.00;93220.09;2130965;27;20029;-75
2022/12/01 04:54:40;;;;;;;31.73;18.80;;;;;;;0.11;100.00;93212.22;2140233;27;20026;-76
2022/12/01 04:55:41;;;;;;;30.10;17.52;;;;;;;-0.01;100.00;93218.38;2136461;27;20022;-75
2022/12/01 04:56:43;;;;;;;31.63;18.35;;;;;;;-0.04;100.00;93213.81;2138485;27;20057;-74
2022/12/01 04:57:44;;;;;;;31.17;19.30;;;;;;;-0.02;100.00;93219.47;2139868;27;20026;-76
2022/12/01 04:58:45;;;;;;;30.48;18.50;;;;;;;0.02;100.00;93226.69;2140064;27;20360;-75
2022/12/01 04:59:46;;;;;;;32.30;18.50;;;;;;;0.02;100.00;93230.06;2139913;27;20372;-76
2022/12/01 05:00:48;;;;;;;29.98;18.13;;;;;;;0.06;100.00;93225.66;2133907;27;20010;-73
2022/12/01 05:01:49;;;;;;;30.35;18.45;;;;;;;0.06;100.00;93217.75;2130912;27;20039;-74
2022/12/01 05:02:49;;;;;;;27.73;17.13;;;;;;;-0.01;100.00;93220.25;2131261;27;20027;-74
2022/12/01 05:03:51;;;;;;;31.17;18.75;;;;;;;-0.10;100.00;93223.06;2131602;27;20034;-76
2022/12/01 05:04:52;;;;;;;29.55;18.30;;;;;;;-0.19;100.00;93227.78;2122190;27;20461;-74